Flight Track Log - Related Links

Times and Time Zones

All times are in EDT time to prevent confusion due to time zone crossing. See the USC105 flight status page for this flight to view local times or setup timezone preferences in your user account.

Time Position Orientation Groundspeed Altitude Reporting Facility
EDT Latitude Longitude Course Direction KTS MPH feet Rate Location/Type
Tue 23:20:31 41.5228 -81.7092 321° Northwest 100 115 1,400  Level Cleveland Center
Tue 23:21:32 41.5497 -81.7317 328° Northwest 128 147 2,400 1,043 Climbing Cleveland Center
Tue 23:22:26 41.5619 -81.7708 293° West 129 148 3,400 1,096 Climbing Cleveland Center
Tue 23:23:27 41.5781 -81.8128 297° West 125 144 4,500 1,140 Climbing Cleveland Center
Tue 23:24:27 41.5881 -81.8519 289° West 112 129 5,700 744 Climbing Cleveland Center
Tue 23:25:28 41.6044 -81.8939 298° West 132 152 6,000 148 Climbing Cleveland Center
Tue 23:26:29 41.6183 -81.9442 290° West 153 176 6,000  Level Cleveland Center
Tue 23:27:29 41.6364 -82.0000 293° West 158 182 6,000  Level Cleveland Center
Tue 23:28:30 41.6567 -82.0561 296° West 160 184 6,000  Level Cleveland Center
Tue 23:29:31 41.6725 -82.1119 291° West 162 186 6,000  Level Cleveland Center
Tue 23:30:31 41.6906 -82.1625 296° West 162 186 6,000 -50 Level Cleveland Center
Tue 23:31:32 41.7086 -82.2186 293° West 161 185 5,900 -50 Descending Cleveland Center
Tue 23:32:32 41.7264 -82.2775 292° West 163 188 5,900 53 Level Cleveland Center
Tue 23:33:25 41.7467 -82.3253 300° West 164 189 6,000 48 Climbing Cleveland Center
Tue 23:34:37 41.7664 -82.3928 291° West 166 191 6,000  Level Cleveland Center
Tue 23:35:38 41.7864 -82.4461 297° West 165 190 6,000  Level Cleveland Center
Tue 23:36:38 41.8042 -82.5053 292° West 164 189 6,000  Level Cleveland Center
Tue 23:37:39 41.8219 -82.5642 292° West 165 190 6,000  Level Cleveland Center
Tue 23:38:40 41.8419 -82.6178 297° West 164 189 6,000  Level Cleveland Center
Tue 23:39:40 41.8681 -82.6689 304° West 165 190 6,000  Level Cleveland Center
Tue 23:40:35 41.8942 -82.7144 308° West 163 188 6,000  Level Cleveland Center
Tue 23:41:41 41.9225 -82.7656 307° West 164 189 6,000  Level Cleveland Center
Tue 23:42:42 41.9508 -82.8167 307° West 166 191 6,000  Level Cleveland Center
Tue 23:43:49 41.9850 -82.8739 309° West 168 193 6,000  Level Cleveland Center
Tue 23:44:49 42.0111 -82.9222 306° West 170 196 6,000  Level Cleveland Center
Tue 23:45:50 42.0392 -82.9736 306° West 172 198 6,000  Level Cleveland Center
Tue 23:46:45 42.0675 -83.0222 308° West 174 200 6,000 -209 Level Cleveland Center
Tue 23:47:45 42.0975 -83.0767 307° West 183 211 5,600 -470 Descending Cleveland Center
Tue 23:48:40 42.1275 -83.1308 307° West 196 226 5,100 -298 Descending Cleveland Center
Tue 23:49:46 42.1578 -83.1853 307° West 176 203 5,000 -47 Descending Cleveland Center
Tue 23:50:47 42.1897 -83.2428 307° West 169 194 5,000  Level Cleveland Center
Tue 23:51:48 42.2156 -83.2944 304° West 164 189 5,000 -417 Level Cleveland Center
Tue 23:52:42 42.2417 -83.3431 306° West 186 214 4,200 -939 Descending Cleveland Center
Tue 23:53:43 42.2736 -83.3978 308° West 192 221 3,200 -850 Descending Cleveland Center
Tue 23:54:49 42.2844 -83.4628 283° West 166 191 2,400 -893 Descending Cleveland Center
Tue 23:55:44 42.2583 -83.5011 227° Southwest 136 157 1,400 -1,091 Descending Cleveland Center
Tue 23:57:00 42.2333 -83.5167 270° West  Level FlightAware Approximate
Wed 00:04:00 42.2393 -83.5310 270° West  Level Estimated
Wed 00:05:00 42.2393 -83.5310 270° West  Level Estimated

Login

Don't have an account? Register now (free) for customized features, flight alerts, and more!